createdAt,value
2023-03-06T00:00:53.729Z,35.50
2023-03-06T00:01:53.697Z,37.40
2023-03-06T00:02:53.834Z,38.60
2023-03-06T00:03:53.842Z,38.50
2023-03-06T00:04:53.667Z,40.60
2023-03-06T00:05:53.743Z,39.80
2023-03-06T00:06:53.579Z,40.00
2023-03-06T00:07:53.590Z,41.40
2023-03-06T00:08:53.601Z,40.00
2023-03-06T00:09:53.750Z,43.40
2023-03-06T00:10:53.608Z,42.40
2023-03-06T00:11:53.595Z,43.70
2023-03-06T00:12:53.588Z,43.40
2023-03-06T00:13:53.567Z,46.80
2023-03-06T00:14:53.690Z,43.30
2023-03-06T00:15:53.623Z,46.40
2023-03-06T00:16:53.494Z,46.40
2023-03-06T00:17:53.480Z,47.20
2023-03-06T00:18:53.474Z,46.30
2023-03-06T00:19:53.400Z,46.70
2023-03-06T00:20:53.486Z,46.80
2023-03-06T00:21:53.479Z,46.30
2023-03-06T00:22:53.481Z,45.70
2023-03-06T00:23:53.457Z,45.70
2023-03-06T00:24:53.367Z,47.50
2023-03-06T00:25:53.592Z,46.60
2023-03-06T00:26:53.425Z,48.00
2023-03-06T00:27:53.428Z,46.60
2023-03-06T00:28:53.423Z,46.40
2023-03-06T00:29:53.423Z,47.30
2023-03-06T00:30:53.445Z,46.90
2023-03-06T00:31:53.417Z,48.90
2023-03-06T00:32:53.458Z,47.70
2023-03-06T00:33:53.438Z,50.10
2023-03-06T00:34:53.335Z,48.90
2023-03-06T00:35:53.501Z,49.50
2023-03-06T00:36:53.343Z,51.00
2023-03-06T00:37:53.352Z,47.80
2023-03-06T00:38:53.354Z,51.50
2023-03-06T00:39:53.341Z,52.50
2023-03-06T00:40:53.354Z,51.50
2023-03-06T00:41:53.327Z,50.40
2023-03-06T00:42:53.302Z,51.50
2023-03-06T00:43:53.282Z,49.80
2023-03-06T00:44:53.261Z,47.70
2023-03-06T00:45:53.313Z,50.60
2023-03-06T00:46:53.328Z,49.90
2023-03-06T00:47:53.195Z,51.40
2023-03-06T00:48:53.296Z,51.40
2023-03-06T00:49:53.174Z,48.80
2023-03-06T00:50:53.164Z,48.10
2023-03-06T00:51:53.165Z,51.60
2023-03-06T00:52:53.263Z,50.00
2023-03-06T00:53:53.013Z,48.50
2023-03-06T00:54:53.224Z,48.80
2023-03-06T00:55:53.005Z,46.40
2023-03-06T00:56:53.092Z,47.50
2023-03-06T00:57:53.197Z,49.60
2023-03-06T00:58:53.182Z,46.50
2023-03-06T00:59:53.178Z,47.60
2023-03-06T01:00:53.148Z,46.50
2023-03-06T01:01:53.100Z,46.30
2023-03-06T01:02:53.143Z,46.10
2023-03-06T01:03:53.081Z,47.30
2023-03-06T01:04:53.094Z,44.50
2023-03-06T01:05:53.021Z,42.90
2023-03-06T01:06:53.018Z,44.90
2023-03-06T01:07:52.879Z,44.30
2023-03-06T01:08:53.040Z,44.30
2023-03-06T01:09:52.882Z,45.00
2023-03-06T01:10:53.039Z,45.50
2023-03-06T01:11:53.023Z,44.50
2023-03-06T01:12:52.925Z,44.70
2023-03-06T01:13:52.952Z,45.10
2023-03-06T01:14:52.941Z,44.10
2023-03-06T01:15:52.995Z,48.00
2023-03-06T01:16:52.811Z,47.60
2023-03-06T01:17:52.901Z,44.80
2023-03-06T01:18:52.998Z,40.30
2023-03-06T01:19:52.726Z,43.00
2023-03-06T01:20:52.995Z,42.80
2023-03-06T01:21:52.855Z,40.30
2023-03-06T01:22:52.870Z,42.60
2023-03-06T01:23:52.881Z,40.20
2023-03-06T01:24:52.862Z,42.10
2023-03-06T01:25:52.943Z,41.40
2023-03-06T01:26:52.840Z,41.00
2023-03-06T01:27:52.821Z,40.40
2023-03-06T01:28:52.822Z,43.50
2023-03-06T01:29:52.787Z,44.50
2023-03-06T01:30:52.847Z,42.30
2023-03-06T01:31:52.794Z,42.60
2023-03-06T01:32:52.842Z,41.80
2023-03-06T01:33:52.763Z,42.60
2023-03-06T01:34:52.768Z,39.80
2023-03-06T01:35:52.772Z,45.60
2023-03-06T01:36:52.876Z,45.00
2023-03-06T01:37:52.868Z,43.80
2023-03-06T01:38:52.712Z,44.30
2023-03-06T01:39:52.704Z,42.00
2023-03-06T01:40:52.689Z,40.60
2023-03-06T01:41:52.760Z,42.80
2023-03-06T01:42:52.744Z,44.30
2023-03-06T01:43:52.728Z,40.80
2023-03-06T01:44:52.693Z,41.70
2023-03-06T01:45:52.743Z,45.20
2023-03-06T01:46:52.687Z,44.80
2023-03-06T01:47:52.737Z,47.10
2023-03-06T01:48:52.646Z,44.60
2023-03-06T01:49:52.631Z,42.10
2023-03-06T01:50:52.600Z,42.00
2023-03-06T01:51:52.592Z,43.40
2023-03-06T01:52:52.412Z,43.30
2023-03-06T01:53:52.559Z,44.20
2023-03-06T01:54:52.364Z,41.50
2023-03-06T01:55:52.543Z,43.30
2023-03-06T01:56:52.531Z,41.50
2023-03-06T01:57:52.543Z,42.50
2023-03-06T01:58:52.513Z,42.00
2023-03-06T01:59:52.518Z,41.40
2023-03-06T02:00:52.439Z,41.00
2023-03-06T02:01:52.522Z,41.40
2023-03-06T02:02:52.554Z,41.80
2023-03-06T02:03:52.593Z,42.90
2023-03-06T02:04:52.534Z,41.80
2023-03-06T02:05:52.543Z,40.80
2023-03-06T02:06:52.475Z,43.50
2023-03-06T02:07:52.341Z,41.10
2023-03-06T02:08:52.428Z,39.20
2023-03-06T02:09:52.449Z,41.30
2023-03-06T02:10:52.474Z,39.10
2023-03-06T02:11:52.483Z,44.60
2023-03-06T02:12:52.414Z,41.90
2023-03-06T02:13:52.293Z,40.80
2023-03-06T02:14:52.379Z,40.90
2023-03-06T02:15:52.385Z,43.80
2023-03-06T02:16:52.457Z,45.10
2023-03-06T02:17:52.453Z,41.70
2023-03-06T02:18:52.383Z,42.50
2023-03-06T02:19:52.324Z,41.80
2023-03-06T02:20:52.346Z,41.90
2023-03-06T02:21:52.293Z,41.80
2023-03-06T02:22:52.388Z,42.10
2023-03-06T02:23:52.307Z,43.70
2023-03-06T02:24:52.318Z,44.50
2023-03-06T02:25:52.334Z,43.50
2023-03-06T02:26:52.392Z,41.80
2023-03-06T02:27:52.146Z,43.40
2023-03-06T02:28:52.291Z,44.70
2023-03-06T02:29:52.283Z,41.60
2023-03-06T02:30:52.415Z,46.30
2023-03-06T02:31:52.206Z,43.90
2023-03-06T02:32:52.137Z,49.10
2023-03-06T02:33:52.144Z,46.50
2023-03-06T02:34:52.135Z,49.90
2023-03-06T02:35:52.270Z,44.80
2023-03-06T02:36:52.143Z,46.30
2023-03-06T02:37:52.197Z,43.30
2023-03-06T02:38:52.145Z,46.70
2023-03-06T02:39:52.157Z,45.80
2023-03-06T02:40:52.170Z,45.60
2023-03-06T02:41:52.151Z,46.40
2023-03-06T02:42:52.151Z,42.80
2023-03-06T02:43:52.153Z,50.60
2023-03-06T02:44:52.133Z,48.10
2023-03-06T02:45:52.181Z,45.80
2023-03-06T02:46:52.013Z,44.30
2023-03-06T02:47:52.033Z,46.20
2023-03-06T02:48:52.022Z,45.70
2023-03-06T02:49:52.020Z,46.00
2023-03-06T02:50:52.128Z,44.60
2023-03-06T02:51:51.997Z,44.60
2023-03-06T02:52:51.989Z,45.60
2023-03-06T02:53:52.104Z,46.10
2023-03-06T02:54:51.915Z,45.40
2023-03-06T02:55:51.906Z,43.50
2023-03-06T02:56:51.754Z,45.40
2023-03-06T02:57:51.923Z,42.90
2023-03-06T02:58:52.002Z,43.90
2023-03-06T02:59:51.927Z,43.40
2023-03-06T03:00:51.876Z,43.70
2023-03-06T03:01:51.935Z,41.60
2023-03-06T03:02:51.867Z,42.60
2023-03-06T03:03:51.917Z,42.30
2023-03-06T03:04:51.944Z,42.70
2023-03-06T03:05:51.967Z,42.20
2023-03-06T03:06:51.911Z,42.70
2023-03-06T03:07:51.858Z,41.50
2023-03-06T03:08:51.899Z,41.10
2023-03-06T03:09:51.836Z,41.50
2023-03-06T03:10:51.857Z,40.10
2023-03-06T03:11:51.864Z,38.60
2023-03-06T03:12:51.794Z,39.40
2023-03-06T03:13:51.782Z,38.00
2023-03-06T03:14:51.782Z,38.40
2023-03-06T03:15:51.880Z,38.00
2023-03-06T03:16:51.852Z,39.70
2023-03-06T03:17:51.762Z,37.90
2023-03-06T03:18:51.850Z,40.00
2023-03-06T03:19:51.710Z,36.70
2023-03-06T03:20:51.659Z,37.70
2023-03-06T03:21:51.750Z,39.20
2023-03-06T03:22:51.769Z,37.70
2023-03-06T03:23:51.676Z,38.80
2023-03-06T03:24:51.821Z,39.40
2023-03-06T03:25:51.652Z,38.40
2023-03-06T03:26:51.725Z,36.30
2023-03-06T03:27:51.637Z,36.20
2023-03-06T03:28:51.616Z,36.40
2023-03-06T03:29:51.750Z,37.40
2023-03-06T03:30:51.693Z,35.60
2023-03-06T03:31:51.592Z,36.20
2023-03-06T03:32:51.399Z,37.10
2023-03-06T03:33:51.699Z,37.20
2023-03-06T03:34:51.615Z,37.30
2023-03-06T03:35:51.474Z,38.60
2023-03-06T03:36:51.380Z,35.50
2023-03-06T03:37:51.456Z,37.70
2023-03-06T03:38:51.606Z,37.00
2023-03-06T03:39:51.606Z,37.10
2023-03-06T03:40:51.405Z,36.70
2023-03-06T03:41:51.451Z,35.00
2023-03-06T03:42:51.451Z,36.30
2023-03-06T03:43:51.447Z,36.60
2023-03-06T03:44:51.471Z,35.50
2023-03-06T03:45:51.484Z,34.80
2023-03-06T03:46:51.547Z,35.00
2023-03-06T03:47:51.499Z,37.10
2023-03-06T03:48:51.298Z,36.40
2023-03-06T03:49:51.399Z,35.00
2023-03-06T03:50:51.531Z,34.90
2023-03-06T03:51:51.413Z,34.90
2023-03-06T03:52:51.251Z,33.20
2023-03-06T03:53:51.349Z,37.10
2023-03-06T03:54:51.370Z,34.00
2023-03-06T03:55:51.385Z,34.60
2023-03-06T03:56:51.293Z,35.40
2023-03-06T03:57:51.292Z,35.30
2023-03-06T03:58:51.287Z,35.60
2023-03-06T03:59:51.276Z,35.90
2023-03-06T04:00:51.327Z,37.40
2023-03-06T04:01:51.340Z,35.10
2023-03-06T04:02:51.293Z,36.50
2023-03-06T04:03:51.267Z,36.50
2023-03-06T04:04:51.381Z,36.50
2023-03-06T04:05:51.214Z,37.40
2023-03-06T04:06:51.209Z,34.60
2023-03-06T04:07:51.203Z,38.90
2023-03-06T04:08:51.226Z,36.10
2023-03-06T04:09:51.241Z,35.90
2023-03-06T04:10:51.162Z,36.40
2023-03-06T04:11:51.148Z,36.70
2023-03-06T04:12:51.151Z,35.40
2023-03-06T04:13:51.253Z,35.70
2023-03-06T04:14:50.964Z,33.70
2023-03-06T04:15:51.195Z,34.30
2023-03-06T04:16:51.115Z,36.20
2023-03-06T04:17:51.215Z,36.60
2023-03-06T04:18:51.154Z,35.90
2023-03-06T04:19:51.097Z,34.80
2023-03-06T04:20:51.184Z,35.90
2023-03-06T04:21:51.119Z,37.00
2023-03-06T04:22:51.141Z,32.40
2023-03-06T04:23:51.083Z,33.50
2023-03-06T04:24:51.101Z,33.40
2023-03-06T04:25:51.184Z,32.70
2023-03-06T04:26:51.023Z,31.10
2023-03-06T04:27:50.917Z,31.10
2023-03-06T04:28:50.833Z,31.60
2023-03-06T04:29:50.812Z,30.80
2023-03-06T04:30:50.895Z,34.30
2023-03-06T04:31:51.023Z,35.10
2023-03-06T04:32:51.015Z,38.00
2023-03-06T04:33:50.982Z,35.10
2023-03-06T04:34:50.979Z,36.00
2023-03-06T04:35:51.057Z,35.50
2023-03-06T04:36:50.933Z,39.10
2023-03-06T04:37:50.924Z,37.50
2023-03-06T04:38:51.021Z,36.70
2023-03-06T04:39:50.801Z,39.00
2023-03-06T04:40:50.959Z,36.40
2023-03-06T04:41:50.930Z,36.70
2023-03-06T04:42:51.008Z,37.40
2023-03-06T04:43:50.859Z,35.90
2023-03-06T04:44:50.858Z,35.50
2023-03-06T04:45:50.912Z,33.70
2023-03-06T04:46:50.659Z,33.40
2023-03-06T04:47:50.821Z,34.90
2023-03-06T04:48:50.840Z,34.90
2023-03-06T04:49:50.668Z,36.00
2023-03-06T04:50:50.935Z,34.50
2023-03-06T04:51:50.714Z,36.40
2023-03-06T04:52:50.631Z,35.30
2023-03-06T04:53:50.772Z,33.40
2023-03-06T04:54:50.585Z,33.30
2023-03-06T04:55:50.714Z,35.90
2023-03-06T04:56:50.660Z,35.80
2023-03-06T04:57:50.557Z,35.30
2023-03-06T04:58:50.684Z,34.80
2023-03-06T04:59:50.747Z,35.70
2023-03-06T05:00:50.691Z,35.90
2023-03-06T05:01:50.840Z,33.10
2023-03-06T05:02:50.715Z,34.20
2023-03-06T05:03:50.727Z,32.00
2023-03-06T05:04:50.776Z,32.40
2023-03-06T05:05:50.754Z,33.30
2023-03-06T05:06:50.587Z,31.20
2023-03-06T05:07:50.685Z,30.30
2023-03-06T05:08:50.637Z,31.30
2023-03-06T05:09:50.644Z,30.40
2023-03-06T05:10:50.728Z,31.20
2023-03-06T05:11:50.589Z,32.10
2023-03-06T05:12:50.620Z,31.20
2023-03-06T05:13:50.619Z,27.80
2023-03-06T05:14:50.479Z,28.70
2023-03-06T05:15:50.484Z,27.90
2023-03-06T05:16:50.657Z,29.50
2023-03-06T05:17:50.592Z,29.20
2023-03-06T05:18:50.800Z,28.60
2023-03-06T05:19:50.450Z,27.20
2023-03-06T05:20:50.306Z,27.40
2023-03-06T05:21:50.601Z,28.50
2023-03-06T05:22:50.620Z,25.00
2023-03-06T05:23:50.464Z,25.30
2023-03-06T05:24:50.484Z,23.70
2023-03-06T05:25:50.392Z,25.00
2023-03-06T05:26:50.426Z,25.30
2023-03-06T05:27:50.457Z,25.80
2023-03-06T05:28:50.308Z,26.60
2023-03-06T05:29:50.607Z,24.30
2023-03-06T05:30:50.422Z,27.30
2023-03-06T05:31:50.432Z,29.60
2023-03-06T05:32:50.522Z,28.30
2023-03-06T05:33:50.326Z,27.20
2023-03-06T05:34:50.393Z,28.10
2023-03-06T05:35:50.402Z,27.40
2023-03-06T05:36:50.110Z,28.90
2023-03-06T05:37:50.054Z,26.90
2023-03-06T05:38:50.364Z,25.40
2023-03-06T05:39:50.049Z,25.30
2023-03-06T05:40:50.104Z,24.00
2023-03-06T05:41:50.336Z,26.40
2023-03-06T05:42:50.257Z,25.80
2023-03-06T05:43:50.362Z,25.50
2023-03-06T05:44:50.287Z,26.00
2023-03-06T05:45:50.182Z,24.10
2023-03-06T05:46:50.152Z,25.60
2023-03-06T05:47:50.213Z,24.30
2023-03-06T05:48:50.295Z,25.20
2023-03-06T05:49:50.193Z,24.70
2023-03-06T05:50:50.174Z,24.00
2023-03-06T05:51:50.369Z,25.30
2023-03-06T05:52:49.992Z,24.20
2023-03-06T05:53:49.940Z,24.60
2023-03-06T05:54:49.987Z,24.00
2023-03-06T05:55:50.070Z,22.50
2023-03-06T05:56:49.925Z,23.30
2023-03-06T05:57:49.913Z,24.30
2023-03-06T05:58:50.015Z,25.70
2023-03-06T05:59:50.053Z,23.20
2023-03-06T06:00:50.110Z,23.70
2023-03-06T06:01:50.054Z,24.40
2023-03-06T06:02:49.946Z,24.50
2023-03-06T06:03:50.062Z,23.80
2023-03-06T06:04:49.980Z,22.80
2023-03-06T06:05:49.993Z,24.20
2023-03-06T06:06:49.813Z,24.10
2023-03-06T06:07:49.937Z,22.20
2023-03-06T06:08:49.874Z,23.70
2023-03-06T06:09:49.972Z,20.40
2023-03-06T06:10:52.235Z,21.40
2023-03-06T06:11:50.063Z,20.20
2023-03-06T06:12:49.921Z,20.40
2023-03-06T06:13:49.954Z,19.40
2023-03-06T06:14:49.697Z,20.10
2023-03-06T06:15:49.934Z,18.80
2023-03-06T06:16:50.005Z,22.20
2023-03-06T06:17:49.869Z,21.80
2023-03-06T06:18:49.886Z,19.60
2023-03-06T06:19:49.908Z,21.30
2023-03-06T06:20:49.847Z,19.10
2023-03-06T06:21:49.949Z,21.50
2023-03-06T06:22:49.901Z,19.20
2023-03-06T06:23:49.847Z,18.10
2023-03-06T06:24:49.629Z,19.10
2023-03-06T06:25:49.840Z,20.40
2023-03-06T06:26:49.840Z,19.10
2023-03-06T06:27:49.883Z,17.20
2023-03-06T06:28:49.832Z,17.90
2023-03-06T06:29:49.704Z,21.00
2023-03-06T06:30:49.710Z,18.30
2023-03-06T06:31:49.729Z,17.90
2023-03-06T06:32:49.754Z,18.80
2023-03-06T06:33:49.757Z,17.70
2023-03-06T06:34:49.779Z,17.40
2023-03-06T06:35:49.720Z,18.30
2023-03-06T06:36:52.208Z,17.60
2023-03-06T06:37:49.666Z,18.30
2023-03-06T06:38:49.707Z,18.10
2023-03-06T06:39:49.712Z,18.90
2023-03-06T06:41:26.876Z,17.60
2023-03-06T06:42:14.515Z,19.20
2023-03-06T06:42:49.610Z,17.50
2023-03-06T06:43:49.667Z,18.20
2023-03-06T06:44:49.680Z,18.40
2023-03-06T06:45:50.466Z,18.00
2023-03-06T06:47:49.673Z,18.60
2023-03-06T06:48:49.587Z,17.90
2023-03-06T06:49:49.623Z,18.60
2023-03-06T06:50:49.565Z,17.00
2023-03-06T06:51:49.563Z,18.50
2023-03-06T06:52:49.512Z,17.80
2023-03-06T06:53:49.522Z,17.60
2023-03-06T06:54:49.395Z,17.70
2023-03-06T06:55:49.320Z,17.90
2023-03-06T06:56:49.325Z,18.30
2023-03-06T06:57:49.280Z,17.10
2023-03-06T06:58:49.284Z,18.90
2023-03-06T06:59:51.183Z,18.40
2023-03-06T07:00:49.494Z,19.10
2023-03-06T07:01:49.545Z,20.20
2023-03-06T07:02:49.336Z,19.70
2023-03-06T07:03:49.246Z,20.80
2023-03-06T07:05:03.045Z,18.90
2023-03-06T07:05:49.213Z,18.90
2023-03-06T07:06:49.243Z,20.70
2023-03-06T07:07:49.416Z,20.20
2023-03-06T07:08:49.421Z,20.70
2023-03-06T07:09:49.429Z,21.10
2023-03-06T07:10:49.421Z,22.20
2023-03-06T07:11:49.193Z,21.00
2023-03-06T07:12:49.201Z,22.10
2023-03-06T07:13:49.104Z,21.30
2023-03-06T07:14:49.159Z,21.80
2023-03-06T07:15:49.402Z,21.30
2023-03-06T07:16:49.233Z,21.80
2023-03-06T07:17:50.239Z,21.30
2023-03-06T07:18:49.079Z,21.60
2023-03-06T07:19:49.230Z,20.10
2023-03-06T07:20:49.162Z,21.30
2023-03-06T07:21:49.044Z,23.00
2023-03-06T07:22:51.650Z,21.80
2023-03-06T07:23:49.036Z,21.20
2023-03-06T07:24:49.060Z,20.90
2023-03-06T07:25:49.003Z,23.90
2023-03-06T07:26:48.992Z,23.10
2023-03-06T07:27:53.796Z,21.90
2023-03-06T07:28:52.604Z,22.20
2023-03-06T07:29:48.970Z,23.60
2023-03-06T07:30:48.965Z,22.40
2023-03-06T07:31:48.944Z,23.30
2023-03-06T07:32:48.933Z,22.60
2023-03-06T07:33:48.967Z,21.20
2023-03-06T07:34:48.970Z,22.40
2023-03-06T07:35:48.948Z,22.10
2023-03-06T07:36:48.877Z,21.40
2023-03-06T07:37:48.901Z,22.40
2023-03-06T07:38:48.871Z,23.30
2023-03-06T07:39:48.865Z,23.20
2023-03-06T07:40:48.922Z,22.50
2023-03-06T07:41:48.861Z,24.80
2023-03-06T07:42:48.817Z,21.50
2023-03-06T07:43:48.859Z,22.50
2023-03-06T07:44:48.817Z,24.00
2023-03-06T07:45:48.799Z,23.00
2023-03-06T07:46:48.835Z,21.60
2023-03-06T07:47:48.788Z,22.90
2023-03-06T07:48:48.976Z,23.70
2023-03-06T07:49:48.986Z,22.30
2023-03-06T07:50:48.800Z,26.40
2023-03-06T07:51:48.771Z,24.80
2023-03-06T07:52:48.738Z,25.40
2023-03-06T07:53:48.756Z,24.00
2023-03-06T07:54:48.738Z,24.00
2023-03-06T07:55:48.724Z,25.30
2023-03-06T07:56:48.725Z,24.80
2023-03-06T07:57:48.716Z,24.60
2023-03-06T07:58:48.704Z,24.40
2023-03-06T07:59:48.686Z,24.00
2023-03-06T08:00:48.667Z,24.60
2023-03-06T08:01:48.681Z,23.70
2023-03-06T08:02:48.662Z,24.10
2023-03-06T08:03:48.743Z,24.10
2023-03-06T08:04:48.615Z,24.60
2023-03-06T08:05:48.662Z,24.60
2023-03-06T08:06:48.605Z,23.40
2023-03-06T08:07:48.609Z,22.50
2023-03-06T08:08:48.562Z,23.90
2023-03-06T08:09:48.639Z,21.70
2023-03-06T08:10:48.616Z,21.70
2023-03-06T08:11:48.613Z,20.30
2023-03-06T08:12:48.513Z,20.40
2023-03-06T08:13:48.572Z,22.50
2023-03-06T08:14:48.537Z,21.70
2023-03-06T08:15:48.568Z,24.20
2023-03-06T08:16:48.515Z,22.50
2023-03-06T08:17:48.517Z,22.10
2023-03-06T08:18:48.506Z,22.40
2023-03-06T08:19:48.496Z,24.00
2023-03-06T08:20:48.795Z,22.50
2023-03-06T08:21:48.748Z,22.60
2023-03-06T08:22:48.539Z,21.40
2023-03-06T08:23:48.717Z,20.90
2023-03-06T08:24:48.442Z,20.90
2023-03-06T08:25:48.647Z,21.70
2023-03-06T08:26:48.632Z,21.50
2023-03-06T08:27:48.607Z,20.60
2023-03-06T08:28:48.580Z,21.00
2023-03-06T08:29:48.388Z,20.20
2023-03-06T08:30:48.358Z,21.00
2023-03-06T08:31:48.561Z,21.50
2023-03-06T08:32:48.362Z,19.70
2023-03-06T08:33:48.330Z,19.20
2023-03-06T08:34:48.550Z,20.50
2023-03-06T08:35:48.422Z,18.80
2023-03-06T08:36:48.294Z,20.30
2023-03-06T08:37:48.443Z,18.40
2023-03-06T08:38:48.522Z,19.80
2023-03-06T08:39:48.479Z,18.00
2023-03-06T08:40:48.429Z,18.50
2023-03-06T08:41:48.376Z,18.00
2023-03-06T08:42:48.264Z,17.70
2023-03-06T08:43:48.253Z,18.00
2023-03-06T08:44:48.254Z,20.50
2023-03-06T08:45:48.293Z,18.30
2023-03-06T08:46:48.195Z,17.50
2023-03-06T08:47:48.179Z,20.80
2023-03-06T08:48:48.154Z,16.80
2023-03-06T08:49:48.196Z,20.40
2023-03-06T08:50:48.191Z,17.60
2023-03-06T08:51:48.156Z,15.00
2023-03-06T08:52:48.137Z,14.60
2023-03-06T08:53:48.142Z,16.30
2023-03-06T08:54:48.118Z,16.90
2023-03-06T08:55:48.127Z,15.10
2023-03-06T08:56:48.087Z,14.80
2023-03-06T08:57:48.054Z,14.50
2023-03-06T08:58:48.107Z,16.40
2023-03-06T08:59:48.111Z,16.20
2023-03-06T09:00:48.216Z,22.70
2023-03-06T09:01:48.164Z,15.60
2023-03-06T09:02:48.075Z,14.40
2023-03-06T09:03:48.062Z,14.10
2023-03-06T09:04:48.288Z,13.90
2023-03-06T09:05:48.028Z,15.70
2023-03-06T09:06:48.218Z,15.10
2023-03-06T09:07:47.988Z,15.80
2023-03-06T09:08:47.966Z,15.00
2023-03-06T09:09:48.110Z,15.20
2023-03-06T09:10:48.071Z,14.90
2023-03-06T09:11:47.961Z,16.70
2023-03-06T09:12:50.868Z,15.30
2023-03-06T09:13:48.256Z,15.30
2023-03-06T09:14:48.236Z,16.90
2023-03-06T09:15:48.210Z,17.50
2023-03-06T09:16:48.282Z,17.50
2023-03-06T09:17:48.278Z,23.60
2023-03-06T09:18:48.198Z,21.30
2023-03-06T09:19:47.898Z,18.30
2023-03-06T09:20:47.885Z,21.10
2023-03-06T09:21:48.141Z,17.80
2023-03-06T09:22:47.894Z,17.10
2023-03-06T09:23:47.862Z,18.10
2023-03-06T09:24:47.839Z,17.10
2023-03-06T09:25:47.831Z,17.50
2023-03-06T09:26:49.869Z,18.80
2023-03-06T09:27:51.382Z,18.40
2023-03-06T09:28:47.855Z,18.10
2023-03-06T09:29:47.950Z,18.30
2023-03-06T09:30:47.752Z,20.20
2023-03-06T09:31:47.813Z,18.50
2023-03-06T09:32:47.742Z,17.60
2023-03-06T09:33:47.759Z,25.30
2023-03-06T09:34:47.714Z,18.40
2023-03-06T09:35:47.772Z,19.60
2023-03-06T09:36:56.579Z,20.90
2023-03-06T09:37:47.753Z,36.50
2023-03-06T09:38:47.659Z,32.10
2023-03-06T09:39:47.706Z,22.20
2023-03-06T09:40:47.663Z,23.80
2023-03-06T09:41:47.667Z,20.10
2023-03-06T09:42:47.705Z,19.20
2023-03-06T09:43:47.635Z,18.40
2023-03-06T09:44:47.629Z,19.60
2023-03-06T09:45:47.664Z,21.00
2023-03-06T09:46:47.689Z,22.90
2023-03-06T09:47:47.594Z,20.70
2023-03-06T09:48:47.545Z,18.10
2023-03-06T09:49:47.584Z,20.20
2023-03-06T09:50:47.548Z,18.70
2023-03-06T09:51:47.544Z,19.70
2023-03-06T09:52:47.618Z,18.10
2023-03-06T09:53:47.527Z,18.50
2023-03-06T09:54:47.508Z,19.10
2023-03-06T09:55:47.517Z,17.90
2023-03-06T09:56:47.498Z,19.10
2023-03-06T09:57:47.556Z,20.00
2023-03-06T09:58:47.477Z,18.50
2023-03-06T09:59:47.485Z,17.90
2023-03-06T10:00:47.466Z,19.70
2023-03-06T10:01:47.458Z,18.10
2023-03-06T10:02:47.483Z,19.60
2023-03-06T10:03:47.446Z,19.30
2023-03-06T10:04:47.433Z,19.40
2023-03-06T10:05:47.425Z,18.40
2023-03-06T10:06:47.407Z,20.50
2023-03-06T10:07:47.438Z,20.30
2023-03-06T10:08:47.365Z,19.40
2023-03-06T10:09:47.689Z,18.90
2023-03-06T10:10:47.364Z,19.10
2023-03-06T10:11:47.375Z,19.80
2023-03-06T10:12:47.322Z,18.70
2023-03-06T10:13:47.373Z,19.60
2023-03-06T10:14:49.273Z,19.60
2023-03-06T10:15:47.387Z,19.10
2023-03-06T10:16:47.312Z,20.20
2023-03-06T10:17:47.316Z,19.30
2023-03-06T10:18:47.296Z,18.10
2023-03-06T10:19:47.344Z,18.80
2023-03-06T10:20:47.300Z,18.10
2023-03-06T10:21:47.256Z,18.10
2023-03-06T10:22:58.545Z,18.70
2023-03-06T10:23:47.275Z,17.60
2023-03-06T10:24:47.253Z,18.10
2023-03-06T10:25:47.189Z,17.30
2023-03-06T10:26:47.266Z,18.10
2023-03-06T10:27:47.183Z,18.10
2023-03-06T10:28:47.201Z,18.00
2023-03-06T10:30:01.224Z,17.80
2023-03-06T10:30:47.200Z,17.00
2023-03-06T10:31:47.155Z,18.00
2023-03-06T10:32:49.119Z,17.50
2023-03-06T10:33:47.149Z,17.80
2023-03-06T10:34:47.147Z,16.60
2023-03-06T10:35:47.572Z,17.50
2023-03-06T10:36:47.200Z,18.00
2023-03-06T10:37:47.184Z,17.80
2023-03-06T10:38:47.444Z,18.00
2023-03-06T10:39:47.440Z,17.40
2023-03-06T10:40:47.406Z,18.60
2023-03-06T10:41:47.404Z,17.70
2023-03-06T10:42:47.040Z,16.30
2023-03-06T10:43:47.058Z,17.60
2023-03-06T10:44:47.370Z,18.50
2023-03-06T10:45:49.453Z,16.90
2023-03-06T10:46:47.470Z,17.40
2023-03-06T10:47:47.094Z,16.60
2023-03-06T10:48:47.022Z,17.50
2023-03-06T10:49:47.365Z,18.00
2023-03-06T10:50:47.080Z,16.70
2023-03-06T10:51:47.053Z,17.30
2023-03-06T10:52:46.982Z,18.70
2023-03-06T10:53:46.961Z,18.80
2023-03-06T10:54:47.224Z,18.00
2023-03-06T10:55:46.895Z,18.60
2023-03-06T10:56:47.035Z,19.70
2023-03-06T10:57:47.124Z,16.30
2023-03-06T10:58:46.888Z,18.20
2023-03-06T10:59:47.071Z,16.60
2023-03-06T11:00:47.063Z,17.10
2023-03-06T11:01:47.180Z,17.00
2023-03-06T11:02:47.108Z,16.60
2023-03-06T11:03:47.124Z,16.50
2023-03-06T11:04:47.110Z,14.70
2023-03-06T11:05:47.144Z,16.90
2023-03-06T11:06:47.153Z,22.10
2023-03-06T11:07:47.151Z,23.30
2023-03-06T11:08:47.142Z,17.50
2023-03-06T11:09:47.113Z,16.10
2023-03-06T11:10:47.089Z,16.00
2023-03-06T11:11:47.095Z,14.80
2023-03-06T11:12:47.057Z,16.50
2023-03-06T11:13:47.011Z,16.30
2023-03-06T11:14:46.985Z,16.90
2023-03-06T11:15:46.981Z,16.60
2023-03-06T11:16:46.935Z,17.20
2023-03-06T11:17:46.903Z,16.80
2023-03-06T11:18:47.124Z,15.40
2023-03-06T11:19:46.850Z,16.70
2023-03-06T11:20:54.101Z,16.20
2023-03-06T11:21:46.825Z,15.60
2023-03-06T11:22:49.088Z,15.00
2023-03-06T11:23:46.994Z,17.10
2023-03-06T11:24:46.841Z,16.20
2023-03-06T11:25:46.792Z,16.20
2023-03-06T11:26:46.919Z,15.50
2023-03-06T11:27:46.893Z,17.30
2023-03-06T11:28:46.929Z,15.70
2023-03-06T11:29:46.547Z,14.40
2023-03-06T11:30:46.551Z,14.30
2023-03-06T11:31:46.869Z,14.90
2023-03-06T11:32:46.816Z,15.60
2023-03-06T11:33:46.811Z,13.70
2023-03-06T11:34:48.631Z,13.50
2023-03-06T11:35:46.639Z,13.60
2023-03-06T11:36:46.803Z,14.20
2023-03-06T11:37:46.495Z,13.70
2023-03-06T11:38:46.508Z,16.20
2023-03-06T11:39:46.465Z,14.20
2023-03-06T11:40:46.491Z,13.90
2023-03-06T11:41:46.762Z,15.90
2023-03-06T11:42:46.741Z,14.90
2023-03-06T11:43:46.718Z,15.00
2023-03-06T11:44:46.461Z,15.40
2023-03-06T11:45:46.505Z,14.20
2023-03-06T11:46:46.480Z,14.40
2023-03-06T11:47:46.645Z,13.50
2023-03-06T11:48:46.648Z,13.20
2023-03-06T11:49:46.432Z,13.30
2023-03-06T11:50:46.394Z,13.70
2023-03-06T11:51:46.558Z,12.50
2023-03-06T11:52:46.653Z,11.80
2023-03-06T11:53:47.444Z,10.60
2023-03-06T11:54:46.507Z,10.60
2023-03-06T11:55:46.466Z,10.50
2023-03-06T11:56:46.454Z,11.60
2023-03-06T11:57:46.432Z,9.60
2023-03-06T11:58:46.413Z,8.60
2023-03-06T11:59:46.265Z,9.40
2023-03-06T12:00:46.338Z,14.20
2023-03-06T12:01:46.364Z,10.30
2023-03-06T12:02:46.249Z,8.50
2023-03-06T12:03:46.212Z,8.50
2023-03-06T12:04:46.217Z,9.30
2023-03-06T12:05:46.232Z,10.30
2023-03-06T12:06:46.194Z,8.90
2023-03-06T12:07:46.161Z,8.40
2023-03-06T12:08:46.409Z,9.70
2023-03-06T12:09:46.395Z,10.10
2023-03-06T12:10:51.463Z,8.40
2023-03-06T12:11:46.352Z,7.60
2023-03-06T12:12:46.453Z,10.30
2023-03-06T12:13:46.323Z,12.10
2023-03-06T12:14:46.301Z,9.80
2023-03-06T12:15:46.324Z,10.70
2023-03-06T12:16:46.412Z,12.70
2023-03-06T12:17:46.360Z,16.00
2023-03-06T12:18:46.352Z,15.00
2023-03-06T12:19:46.353Z,11.60
2023-03-06T12:20:46.336Z,16.80
2023-03-06T12:21:46.318Z,11.10
2023-03-06T12:22:57.421Z,8.80
2023-03-06T12:23:46.257Z,12.10
2023-03-06T12:24:46.224Z,11.80
2023-03-06T12:25:46.202Z,7.90
2023-03-06T12:26:46.178Z,8.80
2023-03-06T12:27:46.154Z,8.90
2023-03-06T12:28:46.568Z,10.20
2023-03-06T12:29:46.117Z,8.30
2023-03-06T12:30:46.127Z,10.30
2023-03-06T12:31:46.130Z,9.60
2023-03-06T12:32:46.124Z,10.80
2023-03-06T12:33:46.195Z,11.30
2023-03-06T12:34:46.176Z,11.30
2023-03-06T12:35:46.196Z,11.10
2023-03-06T12:36:46.100Z,10.20
2023-03-06T12:37:46.697Z,9.80
2023-03-06T12:38:46.045Z,9.20
2023-03-06T12:39:46.138Z,10.30
2023-03-06T12:40:46.039Z,17.80
2023-03-06T12:41:46.027Z,11.30
2023-03-06T12:42:46.021Z,11.10
2023-03-06T12:43:46.011Z,10.60
2023-03-06T12:44:46.093Z,11.00
2023-03-06T12:45:46.105Z,10.20
2023-03-06T12:46:45.940Z,11.70
2023-03-06T12:47:45.924Z,11.10
2023-03-06T12:48:45.917Z,10.10
2023-03-06T12:49:47.480Z,9.50
2023-03-06T12:50:46.026Z,10.50
2023-03-06T12:51:45.895Z,10.00
2023-03-06T12:52:45.881Z,9.80
2023-03-06T12:53:45.861Z,9.60
2023-03-06T12:54:45.955Z,9.80